Harbor Beach, Michigan
Current Conditions -  °F | °C
As of 7:39 AM on Friday 24 Oct 2014 (Local Time) from KBAX Reporting Station
Scattered Clouds Scattered Clouds  
Wind Chill: 33°   Ceiling: Unl
Heat Index: 33°   Visibility: 7mi
Dew Point: 33°   Wind: 0mph
Humidity: 100%   Direction: NA
Pressure: 30.06"   Gusts: NA
Location:  43.84°N, 82.65°W
Report Text: KBAX 241139Z AUTO 00000KT 7SM SCT090 01/01 A3006 RMK AO2 T00050005
Loading
Personal Weather Stations






























Interactive Weather Map
Tropical Storm Tracking
New forecast layout! Learn more

10-Day Weather Forecast

Advertisements
Track Severe Weather on mobile